createdAt,value
2023-01-02T00:01:34.748Z,99.90
2023-01-02T00:04:02.359Z,99.90
2023-01-02T00:06:37.110Z,99.90
2023-01-02T00:09:06.363Z,99.90
2023-01-02T00:11:34.157Z,99.90
2023-01-02T00:14:02.151Z,99.90
2023-01-02T00:16:30.272Z,99.90
2023-01-02T00:18:57.834Z,99.90
2023-01-02T00:21:25.651Z,99.90
2023-01-02T00:23:53.278Z,99.90
2023-01-02T00:26:21.174Z,99.90
2023-01-02T00:28:48.916Z,99.90
2023-01-02T00:31:16.557Z,99.90
2023-01-02T00:33:44.200Z,99.90
2023-01-02T00:36:13.066Z,99.90
2023-01-02T00:38:41.600Z,99.90
2023-01-02T00:41:10.189Z,99.90
2023-01-02T00:43:38.338Z,99.90
2023-01-02T00:46:11.497Z,99.90
2023-01-02T00:48:40.000Z,99.90
2023-01-02T00:51:09.116Z,99.90
2023-01-02T00:53:37.800Z,99.90
2023-01-02T00:56:06.304Z,99.90
2023-01-02T00:58:34.110Z,99.90
2023-01-02T01:01:02.089Z,99.90
2023-01-02T01:03:30.413Z,99.90
2023-01-02T01:05:57.859Z,99.90
2023-01-02T01:08:25.629Z,99.90
2023-01-02T01:10:53.117Z,99.90
2023-01-02T01:13:20.852Z,99.90
2023-01-02T01:15:48.484Z,99.90
2023-01-02T01:18:16.012Z,99.90
2023-01-02T01:20:43.487Z,99.90
2023-01-02T01:23:11.207Z,99.90
2023-01-02T01:25:38.769Z,99.90
2023-01-02T01:28:06.424Z,99.90
2023-01-02T01:30:34.230Z,99.90
2023-01-02T01:33:02.057Z,99.90
2023-01-02T01:35:29.871Z,99.90
2023-01-02T01:37:57.709Z,99.90
2023-01-02T01:40:25.567Z,99.90
2023-01-02T01:42:59.024Z,99.90
2023-01-02T01:45:28.581Z,99.90
2023-01-02T01:47:59.941Z,99.90
2023-01-02T01:50:36.035Z,99.90
2023-01-02T01:53:12.476Z,99.90
2023-01-02T01:55:45.836Z,99.90
2023-01-02T01:58:29.184Z,99.90
2023-01-02T02:00:57.470Z,99.90
2023-01-02T02:03:29.182Z,99.90
2023-01-02T02:05:59.211Z,99.90
2023-01-02T02:08:47.849Z,99.90
2023-01-02T02:11:17.360Z,99.90
2023-01-02T02:13:45.359Z,99.90
2023-01-02T02:16:16.288Z,99.90
2023-01-02T02:19:11.350Z,99.90
2023-01-02T02:22:16.913Z,99.90
2023-01-02T02:25:22.092Z,99.90
2023-01-02T02:27:58.508Z,99.90
2023-01-02T02:30:46.967Z,99.90
2023-01-02T02:33:35.995Z,99.90
2023-01-02T02:36:30.625Z,99.90
2023-01-02T02:39:44.896Z,99.90
2023-01-02T02:42:37.055Z,99.90
2023-01-02T02:45:32.309Z,99.90
2023-01-02T02:48:09.997Z,99.90
2023-01-02T02:50:44.680Z,99.90
2023-01-02T02:53:24.663Z,99.90
2023-01-02T02:55:59.468Z,99.90
2023-01-02T02:58:29.769Z,99.90
2023-01-02T03:01:07.113Z,99.90
2023-01-02T03:03:35.000Z,99.90
2023-01-02T03:06:22.456Z,99.90
2023-01-02T03:09:33.026Z,99.90
2023-01-02T03:12:20.590Z,99.90
2023-01-02T03:15:06.221Z,99.90
2023-01-02T03:18:30.793Z,99.90
2023-01-02T03:21:03.076Z,99.90
2023-01-02T03:23:34.852Z,99.90
2023-01-02T03:26:05.052Z,99.90
2023-01-02T03:28:34.989Z,99.90
2023-01-02T03:31:05.047Z,99.90
2023-01-02T03:33:36.917Z,99.90
2023-01-02T03:36:10.118Z,99.90
2023-01-02T03:38:52.983Z,99.90
2023-01-02T03:41:44.909Z,99.90
2023-01-02T03:44:14.438Z,99.90
2023-01-02T03:47:23.707Z,99.90
2023-01-02T03:49:54.578Z,99.90
2023-01-02T03:52:25.922Z,99.90
2023-01-02T03:54:56.442Z,99.90
2023-01-02T03:57:39.103Z,99.90
2023-01-02T04:00:12.594Z,99.90
2023-01-02T04:02:52.995Z,99.90
2023-01-02T04:05:48.471Z,99.90
2023-01-02T04:08:32.447Z,99.90
2023-01-02T04:11:03.001Z,99.90
2023-01-02T04:13:35.364Z,99.90
2023-01-02T04:16:05.328Z,99.90
2023-01-02T04:18:47.701Z,99.90
2023-01-02T04:21:23.929Z,99.90
2023-01-02T04:24:00.372Z,99.90
2023-01-02T04:26:35.474Z,99.90
2023-01-02T04:29:03.399Z,99.90
2023-01-02T04:31:43.224Z,99.90
2023-01-02T04:34:15.265Z,99.90
2023-01-02T04:36:43.246Z,99.90
2023-01-02T04:39:11.106Z,99.90
2023-01-02T04:41:41.437Z,99.90
2023-01-02T04:44:08.910Z,99.90
2023-01-02T04:46:36.517Z,99.90
2023-01-02T04:49:04.399Z,99.90
2023-01-02T04:51:31.939Z,99.90
2023-01-02T04:53:59.562Z,99.90
2023-01-02T04:56:27.688Z,99.90
2023-01-02T04:58:55.491Z,99.90
2023-01-02T05:01:23.281Z,99.90
2023-01-02T05:03:52.951Z,99.90
2023-01-02T05:06:20.816Z,99.90
2023-01-02T05:08:48.316Z,99.90
2023-01-02T05:11:18.818Z,99.90
2023-01-02T05:13:46.591Z,99.90
2023-01-02T05:16:15.554Z,99.90
2023-01-02T05:18:44.245Z,99.90
2023-01-02T05:21:31.860Z,99.90
2023-01-02T05:24:02.484Z,99.90
2023-01-02T05:26:33.457Z,99.90
2023-01-02T05:29:01.503Z,99.90
2023-01-02T05:31:30.493Z,99.90
2023-01-02T05:33:59.738Z,99.90
2023-01-02T05:36:27.853Z,99.90
2023-01-02T05:38:56.611Z,99.90
2023-01-02T05:41:24.538Z,99.90
2023-01-02T05:43:54.214Z,99.90
2023-01-02T05:46:21.991Z,99.90
2023-01-02T05:48:50.380Z,99.90
2023-01-02T05:51:18.659Z,99.90
2023-01-02T05:53:46.406Z,99.90
2023-01-02T05:56:16.739Z,99.90
2023-01-02T05:58:46.778Z,99.90
2023-01-02T06:01:29.820Z,99.90
2023-01-02T06:04:00.028Z,99.90
2023-01-02T06:06:35.772Z,99.90
2023-01-02T06:09:04.891Z,99.90
2023-01-02T06:11:34.152Z,99.90
2023-01-02T06:14:01.824Z,99.90
2023-01-02T06:16:29.537Z,99.90
2023-01-02T06:18:57.120Z,99.90
2023-01-02T06:21:24.700Z,99.90
2023-01-02T06:23:57.065Z,99.90
2023-01-02T06:26:32.769Z,99.90
2023-01-02T06:29:03.274Z,99.90
2023-01-02T06:31:33.437Z,99.90
2023-01-02T06:34:04.001Z,99.90
2023-01-02T06:36:33.602Z,99.90
2023-01-02T06:39:01.701Z,99.90
2023-01-02T06:41:30.005Z,99.90
2023-01-02T06:43:57.762Z,99.90
2023-01-02T06:46:25.805Z,99.90
2023-01-02T06:48:53.756Z,99.90
2023-01-02T06:51:23.482Z,99.90
2023-01-02T06:53:51.502Z,99.90
2023-01-02T06:56:21.165Z,99.90
2023-01-02T06:58:49.200Z,99.90
2023-01-02T07:01:19.995Z,99.90
2023-01-02T07:03:47.989Z,99.90
2023-01-02T07:06:23.671Z,99.90
2023-01-02T07:08:52.539Z,99.90
2023-01-02T07:11:22.752Z,99.90
2023-01-02T07:13:52.884Z,99.90
2023-01-02T07:16:22.374Z,99.90
2023-01-02T07:18:51.691Z,99.90
2023-01-02T07:21:19.690Z,99.90
2023-01-02T07:23:47.357Z,99.90
2023-01-02T07:26:14.988Z,99.90
2023-01-02T07:28:42.956Z,99.90
2023-01-02T07:31:16.460Z,99.90
2023-01-02T07:33:44.066Z,99.90
2023-01-02T07:36:14.376Z,99.90
2023-01-02T07:38:42.253Z,99.90
2023-01-02T07:41:15.720Z,99.90
2023-01-02T07:43:45.125Z,99.90
2023-01-02T07:46:14.139Z,99.90
2023-01-02T07:48:41.903Z,99.90
2023-01-02T07:51:10.507Z,99.90
2023-01-02T07:53:39.146Z,99.90
2023-01-02T07:56:06.986Z,99.90
2023-01-02T07:58:35.056Z,99.90
2023-01-02T08:01:08.265Z,99.90
2023-01-02T08:03:36.096Z,99.90
2023-01-02T08:06:12.300Z,99.90
2023-01-02T08:08:40.420Z,99.90
2023-01-02T08:11:13.967Z,99.90
2023-01-02T08:13:41.839Z,99.90
2023-01-02T08:16:12.240Z,99.90
2023-01-02T08:18:40.270Z,99.90
2023-01-02T08:21:10.482Z,99.90
2023-01-02T08:23:38.515Z,99.90
2023-01-02T08:26:07.512Z,99.90
2023-01-02T08:28:36.097Z,99.90
2023-01-02T08:31:12.681Z,99.90
2023-01-02T08:33:40.464Z,99.90
2023-01-02T08:36:09.250Z,99.90
2023-01-02T08:38:36.851Z,99.90
2023-01-02T08:41:04.660Z,99.90
2023-01-02T08:43:35.388Z,99.90
2023-01-02T08:46:08.089Z,99.90
2023-01-02T08:48:36.411Z,99.90
2023-01-02T08:51:04.937Z,99.90
2023-01-02T08:53:32.509Z,99.90
2023-01-02T08:56:29.725Z,99.90
2023-01-02T08:59:03.128Z,99.90
2023-01-02T09:01:32.235Z,99.90
2023-01-02T09:04:03.730Z,99.90
2023-01-02T09:06:35.884Z,99.90
2023-01-02T09:09:11.072Z,99.90
2023-01-02T09:11:50.795Z,99.90
2023-01-02T09:14:21.592Z,99.90
2023-01-02T09:16:51.061Z,99.90
2023-01-02T09:19:19.028Z,99.90
2023-01-02T09:21:46.463Z,99.90
2023-01-02T09:24:14.114Z,99.90
2023-01-02T09:26:42.538Z,99.90
2023-01-02T09:29:11.930Z,99.90
2023-01-02T09:31:40.497Z,99.90
2023-01-02T09:34:08.566Z,99.90
2023-01-02T09:36:36.123Z,99.90
2023-01-02T09:39:04.519Z,99.90
2023-01-02T09:41:46.267Z,99.90
2023-01-02T09:44:19.834Z,99.90
2023-01-02T09:47:05.555Z,99.90
2023-01-02T09:49:44.576Z,99.90
2023-01-02T09:52:32.529Z,99.90
2023-01-02T09:55:00.529Z,99.90
2023-01-02T09:57:28.059Z,99.90
2023-01-02T10:00:01.472Z,99.90
2023-01-02T10:02:51.617Z,99.90
2023-01-02T10:06:02.646Z,99.90
2023-01-02T10:08:44.760Z,99.90
2023-01-02T10:11:23.354Z,99.90
2023-01-02T10:16:54.706Z,99.90
2023-01-02T10:19:58.622Z,99.90
2023-01-02T10:22:38.154Z,99.90
2023-01-02T10:25:37.885Z,99.90
2023-01-02T10:28:24.371Z,99.90
2023-01-02T10:31:05.515Z,99.90
2023-01-02T10:33:57.961Z,99.90
2023-01-02T10:36:30.241Z,99.90
2023-01-02T10:39:03.982Z,99.90
2023-01-02T10:41:33.109Z,99.90
2023-01-02T10:44:04.835Z,99.90
2023-01-02T10:46:34.976Z,99.90
2023-01-02T10:49:04.345Z,99.90
2023-01-02T10:51:33.267Z,99.90
2023-01-02T10:54:06.240Z,99.90
2023-01-02T10:56:38.023Z,99.90
2023-01-02T10:59:23.899Z,99.90
2023-01-02T11:01:54.441Z,99.90
2023-01-02T11:04:25.356Z,99.90
2023-01-02T11:06:59.292Z,99.90
2023-01-02T11:09:29.406Z,99.90
2023-01-02T11:12:00.361Z,99.90
2023-01-02T11:14:34.351Z,99.90
2023-01-02T11:17:15.188Z,99.90
2023-01-02T11:19:54.669Z,99.90
2023-01-02T11:22:35.272Z,99.90
2023-01-02T11:25:06.131Z,99.90
2023-01-02T11:27:41.919Z,99.90
2023-01-02T11:30:35.242Z,99.90
2023-01-02T11:33:19.337Z,99.90
2023-01-02T11:35:54.574Z,99.90
2023-01-02T11:38:30.225Z,99.90
2023-01-02T11:41:02.891Z,99.90
2023-01-02T11:43:58.592Z,99.90
2023-01-02T11:46:31.341Z,99.90
2023-01-02T11:49:04.837Z,99.90
2023-01-02T11:51:35.288Z,99.90
2023-01-02T11:54:06.651Z,99.90
2023-01-02T11:56:37.332Z,99.90
2023-01-02T11:59:26.118Z,99.90
2023-01-02T12:02:36.362Z,99.90
2023-01-02T12:05:13.900Z,99.90
2023-01-02T12:07:43.393Z,99.90
2023-01-02T12:10:28.520Z,99.90
2023-01-02T12:13:10.986Z,99.90
2023-01-02T12:15:55.295Z,99.90
2023-01-02T12:18:31.472Z,99.90
2023-01-02T12:21:25.976Z,99.90
2023-01-02T12:24:09.753Z,99.90
2023-01-02T12:26:52.651Z,99.90
2023-01-02T12:29:46.130Z,99.90
2023-01-02T12:32:18.190Z,99.90
2023-01-02T12:35:43.288Z,99.90
2023-01-02T12:38:18.066Z,99.90
2023-01-02T12:41:19.481Z,99.90
2023-01-02T12:44:13.726Z,99.90
2023-01-02T12:47:02.297Z,99.90
2023-01-02T12:49:43.833Z,99.90
2023-01-02T12:52:43.412Z,99.90
2023-01-02T12:55:35.785Z,99.90
2023-01-02T12:58:10.531Z,99.90
2023-01-02T13:01:04.316Z,99.90
2023-01-02T13:03:41.137Z,99.90
2023-01-02T13:06:43.359Z,99.90
2023-01-02T13:09:18.324Z,99.90
2023-01-02T13:12:03.738Z,99.90
2023-01-02T13:14:45.247Z,99.90
2023-01-02T13:17:36.451Z,99.90
2023-01-02T13:20:13.289Z,99.90
2023-01-02T13:22:58.600Z,99.90
2023-01-02T13:25:26.870Z,99.90
2023-01-02T13:27:56.911Z,99.90
2023-01-02T13:30:43.096Z,99.90
2023-01-02T13:33:26.633Z,99.90
2023-01-02T13:35:54.454Z,99.90
2023-01-02T13:38:26.315Z,99.90
2023-01-02T13:40:56.940Z,99.90
2023-01-02T13:43:30.938Z,99.90
2023-01-02T13:45:59.613Z,99.90
2023-01-02T13:48:39.856Z,99.90
2023-01-02T13:51:14.683Z,99.90
2023-01-02T13:53:45.586Z,99.90
2023-01-02T13:56:17.484Z,99.90
2023-01-02T13:58:51.354Z,99.90
2023-01-02T14:01:22.194Z,99.90
2023-01-02T14:03:58.516Z,99.00
2023-01-02T14:06:33.735Z,99.50
2023-01-02T14:09:04.335Z,99.30
2023-01-02T14:11:56.637Z,98.70
2023-01-02T14:14:45.053Z,98.70
2023-01-02T14:17:43.103Z,98.40
2023-01-02T14:20:32.534Z,97.70
2023-01-02T14:23:06.572Z,97.50
2023-01-02T14:25:44.828Z,97.50
2023-01-02T14:28:35.296Z,97.20
2023-01-02T14:31:17.896Z,97.00
2023-01-02T14:33:52.131Z,96.20
2023-01-02T14:36:26.009Z,96.70
2023-01-02T14:38:56.635Z,96.60
2023-01-02T14:42:11.154Z,96.40
2023-01-02T14:44:59.992Z,96.20
2023-01-02T14:47:39.257Z,96.20
2023-01-02T14:50:15.401Z,96.20
2023-01-02T14:52:57.859Z,95.90
2023-01-02T14:55:29.916Z,95.90
2023-01-02T14:57:59.911Z,96.00
2023-01-02T15:00:36.793Z,96.10
2023-01-02T15:03:17.275Z,96.30
2023-01-02T15:05:55.855Z,96.10
2023-01-02T15:08:38.693Z,96.40
2023-01-02T15:11:36.105Z,96.40
2023-01-02T15:14:06.210Z,96.40
2023-01-02T15:16:41.384Z,96.50
2023-01-02T15:19:21.467Z,96.30
2023-01-02T15:21:49.041Z,96.20
2023-01-02T15:24:34.175Z,96.30
2023-01-02T15:27:22.432Z,96.10
2023-01-02T15:29:55.093Z,96.10
2023-01-02T15:32:26.496Z,96.20
2023-01-02T15:35:17.067Z,96.20
2023-01-02T15:37:46.763Z,96.10
2023-01-02T15:40:33.169Z,96.40
2023-01-02T15:43:23.197Z,96.60
2023-01-02T15:45:52.879Z,96.60
2023-01-02T15:48:22.536Z,96.70
2023-01-02T15:50:53.090Z,96.80
2023-01-02T15:53:25.408Z,97.00
2023-01-02T15:55:53.022Z,97.20
2023-01-02T15:58:49.908Z,97.40
2023-01-02T16:01:22.403Z,97.60
2023-01-02T16:04:03.103Z,97.90
2023-01-02T16:06:41.241Z,98.00
2023-01-02T16:09:24.649Z,98.10
2023-01-02T16:11:58.305Z,98.40
2023-01-02T16:14:34.599Z,98.50
2023-01-02T16:17:06.555Z,98.70
2023-01-02T16:19:38.143Z,98.60
2023-01-02T16:22:11.599Z,98.70
2023-01-02T16:24:48.274Z,98.90
2023-01-02T16:27:27.311Z,98.80
2023-01-02T16:29:55.001Z,98.80
2023-01-02T16:32:31.565Z,98.90
2023-01-02T16:35:20.069Z,99.10
2023-01-02T16:37:56.273Z,99.20
2023-01-02T16:41:01.807Z,99.30
2023-01-02T16:43:12.134Z,99.30
2023-01-02T16:45:39.988Z,99.50
2023-01-02T16:48:12.878Z,99.60
2023-01-02T16:50:43.566Z,99.70
2023-01-02T16:53:24.567Z,99.80
2023-01-02T16:55:52.675Z,99.90
2023-01-02T16:58:21.222Z,99.90
2023-01-02T17:00:49.649Z,99.90
2023-01-02T17:03:23.029Z,99.90
2023-01-02T17:06:02.206Z,99.90
2023-01-02T17:08:32.362Z,99.90
2023-01-02T17:11:00.666Z,99.90
2023-01-02T17:13:29.643Z,99.90
2023-01-02T17:15:57.762Z,99.90
2023-01-02T17:18:25.645Z,99.90
2023-01-02T17:20:53.297Z,99.90
2023-01-02T17:23:21.119Z,99.90
2023-01-02T17:25:49.012Z,99.90
2023-01-02T17:28:16.662Z,99.90
2023-01-02T17:30:45.821Z,99.90
2023-01-02T17:33:13.653Z,99.90
2023-01-02T17:35:41.142Z,99.90
2023-01-02T17:38:08.793Z,99.90
2023-01-02T17:40:37.521Z,99.90
2023-01-02T17:43:06.219Z,99.90
2023-01-02T17:45:33.743Z,99.90
2023-01-02T17:48:07.802Z,99.90
2023-01-02T17:50:38.277Z,99.90
2023-01-02T17:53:08.505Z,99.90
2023-01-02T17:55:36.002Z,99.90
2023-01-02T17:58:04.892Z,99.90
2023-01-02T18:00:32.489Z,99.90
2023-01-02T18:03:00.033Z,99.90
2023-01-02T18:05:27.677Z,99.90
2023-01-02T18:07:55.184Z,99.90
2023-01-02T18:10:29.148Z,99.90
2023-01-02T18:13:00.417Z,99.90
2023-01-02T18:15:28.925Z,99.90
2023-01-02T18:17:59.543Z,99.90
2023-01-02T18:20:27.158Z,99.90
2023-01-02T18:22:54.723Z,99.90
2023-01-02T18:25:26.939Z,99.90
2023-01-02T18:28:17.898Z,99.90
2023-01-02T18:30:45.639Z,99.90
2023-01-02T18:33:18.425Z,99.90
2023-01-02T18:35:59.052Z,99.90
2023-01-02T18:38:37.992Z,99.90
2023-01-02T18:41:27.450Z,99.90
2023-01-02T18:44:01.412Z,99.90
2023-01-02T18:47:03.674Z,99.90
2023-01-02T18:49:29.431Z,99.90
2023-01-02T18:52:25.303Z,99.90
2023-01-02T18:55:00.849Z,99.90
2023-01-02T18:57:35.558Z,99.90
2023-01-02T19:00:16.161Z,99.90
2023-01-02T19:02:52.820Z,99.90
2023-01-02T19:05:26.123Z,99.90
2023-01-02T19:08:01.308Z,99.90
2023-01-02T19:10:36.609Z,99.90
2023-01-02T19:13:14.133Z,99.90
2023-01-02T19:15:59.499Z,99.90
2023-01-02T19:18:48.213Z,99.90
2023-01-02T19:21:29.034Z,99.90
2023-01-02T19:24:02.001Z,99.90
2023-01-02T19:26:47.190Z,99.90
2023-01-02T19:29:26.525Z,99.90
2023-01-02T19:32:33.105Z,99.90
2023-01-02T19:35:22.547Z,99.90
2023-01-02T19:37:49.961Z,99.90
2023-01-02T19:40:23.501Z,99.90
2023-01-02T19:42:52.933Z,99.90
2023-01-02T19:45:23.149Z,99.90
2023-01-02T19:47:51.610Z,99.90
2023-01-02T19:50:25.713Z,99.90
2023-01-02T19:52:54.259Z,99.90
2023-01-02T19:55:22.292Z,99.90
2023-01-02T19:57:49.717Z,99.90
2023-01-02T20:00:19.463Z,99.90
2023-01-02T20:02:52.287Z,99.90
2023-01-02T20:05:22.231Z,99.90
2023-01-02T20:07:52.193Z,99.90
2023-01-02T20:10:19.987Z,99.90
2023-01-02T20:12:47.891Z,99.90
2023-01-02T20:15:18.483Z,99.90
2023-01-02T20:17:46.539Z,99.90
2023-01-02T20:20:19.202Z,99.90
2023-01-02T20:22:49.262Z,99.90
2023-01-02T20:25:19.016Z,99.90
2023-01-02T20:27:48.253Z,99.90
2023-01-02T20:30:18.834Z,99.90
2023-01-02T20:32:51.474Z,99.90
2023-01-02T20:35:19.036Z,99.90
2023-01-02T20:37:47.533Z,99.90
2023-01-02T20:40:14.974Z,99.90
2023-01-02T20:42:42.976Z,99.90
2023-01-02T20:45:10.995Z,99.90
2023-01-02T20:47:38.458Z,99.90
2023-01-02T20:50:06.324Z,99.90
2023-01-02T20:52:33.793Z,99.90
2023-01-02T20:55:01.448Z,99.90
2023-01-02T20:57:29.771Z,99.90
2023-01-02T20:59:57.264Z,99.90
2023-01-02T21:02:25.059Z,99.90
2023-01-02T21:04:52.944Z,99.90
2023-01-02T21:07:22.152Z,99.90
2023-01-02T21:09:49.648Z,99.90
2023-01-02T21:12:36.022Z,99.90
2023-01-02T21:15:03.679Z,99.90
2023-01-02T21:17:31.275Z,99.90
2023-01-02T21:19:58.903Z,99.90
2023-01-02T21:22:26.352Z,99.90
2023-01-02T21:24:53.882Z,99.90
2023-01-02T21:27:21.430Z,99.90
2023-01-02T21:29:48.870Z,99.90
2023-01-02T21:32:16.454Z,99.90
2023-01-02T21:34:43.950Z,99.90
2023-01-02T21:37:11.410Z,99.90
2023-01-02T21:39:38.841Z,99.90
2023-01-02T21:42:18.543Z,99.90
2023-01-02T21:44:47.303Z,99.90
2023-01-02T21:47:16.819Z,99.90
2023-01-02T21:49:44.940Z,99.90
2023-01-02T21:52:12.552Z,99.90
2023-01-02T21:54:40.103Z,99.90
2023-01-02T21:57:07.611Z,99.90
2023-01-02T21:59:35.245Z,99.90
2023-01-02T22:02:04.811Z,99.90
2023-01-02T22:04:33.650Z,99.90
2023-01-02T22:09:51.506Z,99.90
2023-01-02T22:12:19.062Z,99.90
2023-01-02T22:14:46.536Z,99.90
2023-01-02T22:17:13.990Z,99.90
2023-01-02T22:19:41.818Z,99.90
2023-01-02T22:22:09.377Z,99.90
2023-01-02T22:24:43.984Z,99.90
2023-01-02T22:27:14.743Z,99.90
2023-01-02T22:30:19.500Z,99.90
2023-01-02T22:32:33.590Z,99.90
2023-01-02T22:35:03.254Z,99.90
2023-01-02T22:37:31.107Z,99.90
2023-01-02T22:40:00.555Z,99.90
2023-01-02T22:43:05.949Z,99.90
2023-01-02T22:45:42.542Z,99.90
2023-01-02T22:48:18.402Z,99.90
2023-01-02T22:50:47.512Z,99.90
2023-01-02T22:53:28.267Z,99.90
2023-01-02T22:55:56.530Z,99.90
2023-01-02T22:58:25.095Z,99.90
2023-01-02T23:00:59.487Z,99.90
2023-01-02T23:03:29.682Z,99.90
2023-01-02T23:05:57.663Z,99.90
2023-01-02T23:08:25.584Z,99.90
2023-01-02T23:10:53.521Z,99.90
2023-01-02T23:13:21.291Z,99.90
2023-01-02T23:16:07.458Z,99.90
2023-01-02T23:18:56.900Z,99.90
2023-01-02T23:21:26.786Z,99.90
2023-01-02T23:23:54.407Z,99.90
2023-01-02T23:26:25.658Z,99.90
2023-01-02T23:29:10.246Z,99.90
2023-01-02T23:31:43.244Z,99.90
2023-01-02T23:34:12.839Z,99.90
2023-01-02T23:36:40.862Z,99.90
2023-01-02T23:39:11.761Z,99.90
2023-01-02T23:41:40.327Z,99.90
2023-01-02T23:44:08.467Z,99.90
2023-01-02T23:46:36.357Z,99.90
2023-01-02T23:49:04.684Z,99.90
2023-01-02T23:51:32.226Z,99.90
2023-01-02T23:54:00.424Z,99.90
2023-01-02T23:56:33.052Z,99.90
2023-01-02T23:59:02.189Z,99.90
